Time;durP1;ratioP1;P1;durP2;ratioP2;P2;SDS_P1;SDS_P2;PMS_P1;PMS_P2;Temp;Humidity;BMP_temperature;BMP_pressure;BME280_temperature;BME280_humidity;BME280_pressure;Samples;Min_cycle;Max_cycle;Signal;HPM_P1;HPM_P2
2022/01/16 05:01:28;;;;;;;288.88;55.90;;;2.80;99.90;;;;;;5491454;23;20469;-79
2022/01/16 05:03:54;;;;;;;298.52;56.05;;;2.80;99.90;;;;;;4975781;28;20133;-78
2022/01/16 05:06:20;;;;;;;293.42;59.70;;;2.90;99.90;;;;;;4975779;28;20043;-80
2022/01/16 05:08:46;;;;;;;289.95;54.63;;;2.90;99.90;;;;;;4975357;28;20483;-80
2022/01/16 05:11:14;;;;;;;298.85;55.88;;;2.90;99.90;;;;;;4975350;28;20047;-82
2022/01/16 05:18:52;;;;;;;293.02;58.58;;;3.00;99.90;;;;;;4976935;28;20093;-80
2022/01/16 05:21:18;;;;;;;313.05;59.88;;;3.00;99.90;;;;;;4975318;28;20487;-80
2022/01/16 05:23:44;;;;;;;293.67;55.80;;;3.00;99.90;;;;;;4975307;28;20054;-82
2022/01/16 05:26:11;;;;;;;302.65;60.63;;;3.00;99.90;;;;;;4974567;28;20148;-79
2022/01/16 05:28:37;;;;;;;307.60;60.10;;;3.00;99.90;;;;;;4958923;28;20051;-83
2022/01/16 05:31:03;;;;;;;297.15;55.78;;;3.00;99.90;;;;;;4975024;28;20162;-79
2022/01/16 05:33:29;;;;;;;318.58;57.97;;;3.00;99.90;;;;;;4975162;28;20137;-81
2022/01/16 05:35:55;;;;;;;283.13;57.95;;;3.10;99.90;;;;;;4974980;28;20034;-80
2022/01/16 05:38:21;;;;;;;292.70;57.05;;;3.10;99.90;;;;;;4959008;28;20129;-80
2022/01/16 05:40:46;;;;;;;298.58;58.35;;;3.10;99.90;;;;;;4958923;28;20046;-81
2022/01/16 05:43:12;;;;;;;287.45;56.45;;;3.10;99.90;;;;;;4974916;28;20049;-81
2022/01/16 05:45:38;;;;;;;282.33;56.70;;;3.10;99.90;;;;;;4975022;28;20483;-78
2022/01/16 05:48:04;;;;;;;284.10;60.13;;;3.10;99.90;;;;;;4974883;28;20093;-80
2022/01/16 05:50:31;;;;;;;274.27;57.47;;;3.20;99.90;;;;;;4974702;28;20116;-79
2022/01/16 05:53:00;;;;;;;285.05;56.78;;;3.20;99.90;;;;;;4958651;28;20122;-79
2022/01/16 05:55:33;;;;;;;291.52;59.45;;;3.20;99.90;;;;;;4974589;28;20117;-81
2022/01/16 05:57:59;;;;;;;264.42;56.88;;;3.20;99.90;;;;;;4974621;28;20085;-80
2022/01/16 06:00:25;;;;;;;252.55;55.28;;;3.30;99.90;;;;;;4974265;28;20078;-82
2022/01/16 06:02:51;;;;;;;255.20;56.08;;;3.30;99.90;;;;;;4974562;28;20170;-80
2022/01/16 06:05:16;;;;;;;232.30;50.70;;;3.40;99.90;;;;;;4958255;28;20405;-80
2022/01/16 06:07:51;;;;;;;257.30;55.95;;;3.40;99.90;;;;;;4974188;28;20109;-79
2022/01/16 06:10:16;;;;;;;259.15;55.53;;;3.50;99.90;;;;;;4974343;28;20090;-80
2022/01/16 06:12:42;;;;;;;247.45;54.33;;;3.50;99.90;;;;;;4974426;28;20487;-81
2022/01/16 06:15:08;;;;;;;255.32;56.50;;;3.40;99.90;;;;;;4974229;28;20038;-79
2022/01/16 06:17:34;;;;;;;266.92;57.63;;;3.50;99.90;;;;;;4974213;28;20077;-79
2022/01/16 06:19:59;;;;;;;250.07;55.53;;;3.50;99.90;;;;;;4974050;28;20479;-82
2022/01/16 06:22:25;;;;;;;226.60;53.92;;;3.60;99.90;;;;;;4974268;28;20101;-82
2022/01/16 06:24:50;;;;;;;150.98;33.97;;;3.60;99.90;;;;;;4974499;28;20053;-82
2022/01/16 06:27:16;;;;;;;227.55;55.38;;;3.70;99.90;;;;;;4974061;28;20039;-81
2022/01/16 06:29:41;;;;;;;235.15;55.00;;;3.70;99.90;;;;;;4975407;28;20038;-80
2022/01/16 06:32:07;;;;;;;229.00;55.40;;;3.70;99.90;;;;;;4974013;28;20039;-80
2022/01/16 06:34:33;;;;;;;234.73;59.33;;;3.70;99.90;;;;;;4957921;28;20130;-83
2022/01/16 06:36:59;;;;;;;242.00;55.65;;;3.80;99.90;;;;;;4973297;28;20035;-80
2022/01/16 06:39:25;;;;;;;243.57;57.00;;;3.80;99.90;;;;;;4974082;28;20047;-79
2022/01/16 06:41:51;;;;;;;236.38;55.67;;;3.80;99.90;;;;;;4973900;28;20050;-81
2022/01/16 06:44:16;;;;;;;220.40;57.58;;;3.80;99.90;;;;;;4973794;28;20045;-78
2022/01/16 06:46:42;;;;;;;240.35;56.78;;;3.80;99.90;;;;;;4973685;28;20039;-80
2022/01/16 06:49:10;;;;;;;226.23;57.78;;;3.90;99.90;;;;;;4973738;28;20073;-84
2022/01/16 06:51:37;;;;;;;247.60;56.65;;;3.90;99.90;;;;;;4973910;28;20038;-80
2022/01/16 06:54:03;;;;;;;228.23;55.08;;;3.90;99.90;;;;;;4974098;28;20134;-78
2022/01/16 06:56:29;;;;;;;179.50;46.55;;;3.90;99.90;;;;;;4973910;28;20387;-80
2022/01/16 06:58:56;;;;;;;220.20;55.00;;;3.90;99.90;;;;;;4973663;28;20050;-79
2022/01/16 07:01:21;;;;;;;227.45;54.72;;;3.90;99.90;;;;;;4973533;28;20058;-77
2022/01/16 07:03:48;;;;;;;214.40;54.85;;;4.00;99.90;;;;;;4973428;28;20046;-79
2022/01/16 07:06:14;;;;;;;214.02;54.80;;;4.00;99.90;;;;;;4973598;28;20406;-77
2022/01/16 07:08:50;;;;;;;204.90;53.58;;;4.00;99.90;;;;;;4973471;28;20438;-79
2022/01/16 07:11:16;;;;;;;219.20;59.47;;;4.00;99.90;;;;;;4972819;28;20125;-78
2022/01/16 07:13:42;;;;;;;220.82;56.95;;;4.00;99.90;;;;;;4973389;28;20121;-79
2022/01/16 07:16:08;;;;;;;196.65;53.58;;;4.10;99.90;;;;;;4973420;28;20039;-78
2022/01/16 07:18:34;;;;;;;195.05;56.00;;;4.10;99.90;;;;;;4973697;28;20118;-78
2022/01/16 07:20:59;;;;;;;193.90;52.67;;;4.10;99.90;;;;;;4973192;28;20045;-80
2022/01/16 07:23:25;;;;;;;185.43;52.35;;;4.20;99.90;;;;;;4973196;28;20446;-79
2022/01/16 07:25:52;;;;;;;186.77;51.65;;;4.20;99.90;;;;;;4973567;28;20046;-78
2022/01/16 07:28:19;;;;;;;186.52;53.75;;;4.20;99.90;;;;;;4973106;28;20047;-77
2022/01/16 07:30:45;;;;;;;179.77;51.92;;;4.20;99.90;;;;;;4973169;28;20039;-78
2022/01/16 07:33:10;;;;;;;195.82;52.92;;;4.30;99.90;;;;;;4973683;28;20039;-79
2022/01/16 07:35:37;;;;;;;170.32;49.92;;;4.30;99.90;;;;;;4973834;28;20042;-79
2022/01/16 07:38:04;;;;;;;188.20;54.65;;;4.30;99.90;;;;;;4973453;28;20050;-79
2022/01/16 07:40:30;;;;;;;184.15;52.38;;;4.30;99.90;;;;;;4936223;29;20070;-80
2022/01/16 07:42:56;;;;;;;165.85;50.72;;;4.40;99.90;;;;;;4934640;29;20052;-80
2022/01/16 07:45:22;;;;;;;162.90;51.17;;;4.30;99.90;;;;;;4934535;29;20040;-82
2022/01/16 07:47:48;;;;;;;159.25;49.55;;;4.40;99.90;;;;;;4934699;29;20396;-79
2022/01/16 07:50:15;;;;;;;174.00;50.17;;;4.40;99.90;;;;;;4937617;29;20091;-78
2022/01/16 07:52:41;;;;;;;177.68;51.78;;;4.40;99.90;;;;;;4938299;29;20469;-77
2022/01/16 07:55:07;;;;;;;166.18;49.78;;;4.50;99.90;;;;;;4945033;29;20099;-78
2022/01/16 07:57:33;;;;;;;160.40;62.20;;;4.50;99.90;;;;;;4940635;29;20464;-78
2022/01/16 07:59:58;;;;;;;171.07;49.20;;;4.50;99.90;;;;;;4923220;29;20067;-78
2022/01/16 08:02:24;;;;;;;158.52;56.15;;;4.50;99.90;;;;;;4939064;29;20078;-79
2022/01/16 08:04:49;;;;;;;160.18;49.38;;;4.50;99.90;;;;;;4938102;29;20039;-78
2022/01/16 08:07:15;;;;;;;163.95;50.45;;;4.50;99.90;;;;;;4938108;29;20473;-78
2022/01/16 08:09:41;;;;;;;153.52;47.53;;;4.50;99.90;;;;;;4937736;29;20040;-78
2022/01/16 08:12:07;;;;;;;160.85;50.10;;;4.50;99.90;;;;;;4937828;29;20080;-81
2022/01/16 08:14:35;;;;;;;152.82;50.65;;;4.50;99.90;;;;;;4937699;29;20047;-81
2022/01/16 08:17:01;;;;;;;139.68;47.35;;;4.60;99.90;;;;;;4937932;29;20477;-80
2022/01/16 08:19:28;;;;;;;148.80;56.53;;;4.60;99.90;;;;;;4939019;29;20052;-80
2022/01/16 08:21:54;;;;;;;153.18;60.15;;;4.60;99.90;;;;;;4921645;29;20484;-78
2022/01/16 08:24:20;;;;;;;120.15;45.03;;;4.70;99.90;;;;;;4937475;29;20044;-77
2022/01/16 08:26:46;;;;;;;122.78;47.20;;;4.70;99.90;;;;;;4937783;29;20047;-79
2022/01/16 08:29:12;;;;;;;114.50;44.05;;;4.80;99.90;;;;;;4937895;29;20488;-79
2022/01/16 08:31:37;;;;;;;119.68;43.90;;;4.80;99.90;;;;;;4937551;29;20123;-78
2022/01/16 08:34:03;;;;;;;103.85;39.65;;;4.90;99.90;;;;;;4937345;29;20040;-77
2022/01/16 08:36:29;;;;;;;106.40;41.97;;;4.90;99.90;;;;;;4937620;29;20040;-81
2022/01/16 08:38:55;;;;;;;107.03;39.70;;;5.00;99.90;;;;;;4937191;29;20125;-80
2022/01/16 08:41:24;;;;;;;91.57;38.40;;;5.00;99.90;;;;;;4938700;29;20050;-79
2022/01/16 08:43:50;;;;;;;89.13;38.95;;;5.10;99.90;;;;;;4937485;29;20059;-79
2022/01/16 08:46:16;;;;;;;82.32;35.90;;;5.10;99.90;;;;;;4937329;29;20039;-77
2022/01/16 08:48:42;;;;;;;72.38;29.95;;;5.20;99.90;;;;;;4937179;29;20095;-80
2022/01/16 08:51:08;;;;;;;82.80;35.00;;;5.30;99.90;;;;;;4937048;29;20050;-80
2022/01/16 08:53:34;;;;;;;66.50;33.28;;;5.40;99.90;;;;;;4937608;29;20460;-80
2022/01/16 08:56:00;;;;;;;67.93;34.58;;;5.50;99.90;;;;;;4937202;29;20039;-78
2022/01/16 08:58:26;;;;;;;61.55;31.45;;;5.50;99.90;;;;;;4937055;29;20048;-78
2022/01/16 09:00:53;;;;;;;66.38;30.13;;;5.60;99.90;;;;;;4935840;29;20086;-79
2022/01/16 09:03:22;;;;;;;61.63;32.40;;;5.70;99.90;;;;;;4948844;29;20058;-80
2022/01/16 09:05:49;;;;;;;65.60;32.42;;;5.70;99.90;;;;;;4957159;29;20046;-78
2022/01/16 09:08:16;;;;;;;60.13;31.00;;;5.70;99.90;;;;;;4957461;28;20106;-78
2022/01/16 09:10:42;;;;;;;62.95;31.23;;;5.70;99.90;;;;;;4956264;29;20043;-78
2022/01/16 09:13:12;;;;;;;70.57;32.97;;;5.70;99.90;;;;;;4957595;28;20041;-79
2022/01/16 09:15:39;;;;;;;59.05;31.10;;;5.80;99.90;;;;;;4940727;29;20438;-81
2022/01/16 09:18:05;;;;;;;70.75;35.03;;;5.70;99.90;;;;;;4956062;29;20105;-78
2022/01/16 09:20:31;;;;;;;72.38;33.55;;;5.70;99.90;;;;;;4955901;28;20391;-80
2022/01/16 09:23:00;;;;;;;70.47;34.83;;;5.70;99.90;;;;;;4957384;28;20039;-78
2022/01/16 09:25:26;;;;;;;72.47;31.50;;;5.70;99.90;;;;;;4955780;29;20034;-78
2022/01/16 09:27:52;;;;;;;72.45;32.83;;;5.70;99.90;;;;;;4955850;28;20547;-77
2022/01/16 09:30:19;;;;;;;68.38;34.53;;;5.70;99.90;;;;;;4950190;29;20047;-77
2022/01/16 09:32:45;;;;;;;72.05;33.25;;;5.70;99.90;;;;;;4936344;29;20164;-79
2022/01/16 09:35:13;;;;;;;66.43;30.45;;;5.80;99.90;;;;;;4937702;29;20122;-80
2022/01/16 09:37:40;;;;;;;64.43;27.25;;;5.80;99.90;;;;;;4936343;29;20043;-78
2022/01/16 09:40:07;;;;;;;72.45;33.90;;;5.80;99.90;;;;;;4937755;29;20424;-78
2022/01/16 09:42:34;;;;;;;60.72;28.15;;;5.80;99.90;;;;;;4936309;29;20043;-80
2022/01/16 09:45:00;;;;;;;63.40;31.67;;;5.80;99.90;;;;;;4936106;29;20043;-80
2022/01/16 09:47:26;;;;;;;79.47;32.17;;;5.80;99.90;;;;;;4936204;29;20369;-80
2022/01/16 09:49:51;;;;;;;69.68;30.08;;;5.80;99.90;;;;;;4937582;29;20056;-80
2022/01/16 09:52:18;;;;;;;64.32;29.50;;;5.80;99.90;;;;;;4937710;29;20043;-78
2022/01/16 09:54:44;;;;;;;67.22;29.85;;;5.80;99.90;;;;;;4935923;29;20124;-80
2022/01/16 09:57:12;;;;;;;62.65;27.75;;;5.80;99.90;;;;;;4920530;29;20044;-78
2022/01/16 09:59:38;;;;;;;59.13;27.35;;;5.80;99.90;;;;;;4919919;29;20484;-79
2022/01/16 10:02:04;;;;;;;53.22;25.42;;;5.80;99.90;;;;;;4942099;29;20480;-79
2022/01/16 10:04:39;;;;;;;54.38;26.67;;;5.70;99.90;;;;;;4944445;29;20051;-80
2022/01/16 10:07:07;;;;;;;55.78;26.52;;;5.70;99.90;;;;;;4948754;28;20124;-78
2022/01/16 10:09:35;;;;;;;51.13;25.00;;;5.80;99.90;;;;;;4947058;29;20039;-77
2022/01/16 10:12:04;;;;;;;58.63;27.23;;;5.80;99.90;;;;;;4925381;29;20035;-81
2022/01/16 10:14:34;;;;;;;46.97;20.60;;;5.80;99.90;;;;;;4951842;29;20039;-77
2022/01/16 10:17:12;;;;;;;54.47;23.70;;;5.80;99.90;;;;;;4938768;29;20454;-78
2022/01/16 10:19:38;;;;;;;50.50;22.38;;;5.80;99.90;;;;;;4954099;28;20381;-79
2022/01/16 10:22:07;;;;;;;45.95;23.20;;;5.90;99.90;;;;;;4954143;29;20523;-78
2022/01/16 10:24:34;;;;;;;39.97;19.27;;;5.90;99.90;;;;;;4954262;29;20047;-77
2022/01/16 10:27:09;;;;;;;35.17;18.35;;;6.00;99.90;;;;;;4954317;29;20051;-79
2022/01/16 10:29:40;;;;;;;37.20;14.47;;;6.00;99.90;;;;;;4931285;29;20043;-80
2022/01/16 10:32:12;;;;;;;37.83;15.32;;;6.00;99.90;;;;;;4944939;28;20054;-78
2022/01/16 10:34:37;;;;;;;39.13;17.65;;;6.10;99.90;;;;;;4947588;29;20045;-78
2022/01/16 10:37:21;;;;;;;36.80;16.70;;;6.10;99.90;;;;;;4954192;29;20126;-79
2022/01/16 10:40:05;;;;;;;35.80;16.75;;;6.10;99.90;;;;;;4953955;29;20126;-78
2022/01/16 10:42:33;;;;;;;35.83;17.05;;;6.20;99.90;;;;;;4954080;29;20130;-80
2022/01/16 10:45:06;;;;;;;30.60;14.35;;;6.20;99.90;;;;;;4937968;29;20126;-80
2022/01/16 10:47:37;;;;;;;32.08;15.48;;;6.20;99.90;;;;;;4953944;29;20046;-82
2022/01/16 10:50:18;;;;;;;30.98;15.70;;;6.20;99.90;;;;;;4953782;29;20376;-80
2022/01/16 10:52:53;;;;;;;34.47;15.75;;;6.30;99.90;;;;;;4953762;29;20108;-81
2022/01/16 10:55:22;;;;;;;32.38;12.98;;;6.20;99.90;;;;;;4953696;29;20388;-77
2022/01/16 10:57:48;;;;;;;33.90;13.05;;;6.30;99.90;;;;;;4938211;29;20117;-80
2022/01/16 11:00:17;;;;;;;22.63;11.48;;;6.30;99.90;;;;;;4952828;29;20043;-77
2022/01/16 11:02:45;;;;;;;27.73;11.70;;;6.40;99.90;;;;;;4952592;29;20047;-78
2022/01/16 11:05:20;;;;;;;23.75;10.50;;;6.40;99.90;;;;;;4950037;29;20478;-79
2022/01/16 11:07:46;;;;;;;24.92;8.85;;;6.40;99.90;;;;;;4953965;28;20079;-80
2022/01/16 11:10:18;;;;;;;16.08;6.15;;;6.50;99.90;;;;;;4954388;29;20447;-78
2022/01/16 11:12:44;;;;;;;21.23;8.32;;;6.60;99.90;;;;;;4953943;29;20447;-78
2022/01/16 11:15:10;;;;;;;18.77;6.72;;;6.70;99.90;;;;;;4953823;29;20039;-80
2022/01/16 11:17:38;;;;;;;24.05;7.88;;;6.70;99.90;;;;;;4953130;29;20039;-79
2022/01/16 11:20:05;;;;;;;27.42;8.00;;;6.70;99.90;;;;;;4946131;29;20461;-79
2022/01/16 11:22:45;;;;;;;17.75;7.38;;;6.70;99.90;;;;;;4937741;29;20035;-78
2022/01/16 11:25:23;;;;;;;23.52;8.73;;;6.70;99.90;;;;;;4942614;29;20042;-77
2022/01/16 11:27:50;;;;;;;24.67;9.65;;;6.70;99.90;;;;;;4943369;29;20043;-78
2022/01/16 11:30:15;;;;;;;31.75;12.02;;;6.70;99.90;;;;;;4934638;29;20039;-79
2022/01/16 11:32:41;;;;;;;23.83;10.10;;;6.70;99.90;;;;;;4934455;29;20062;-77
2022/01/16 11:35:07;;;;;;;23.38;9.93;;;6.70;99.90;;;;;;4934636;29;20043;-78
2022/01/16 11:37:35;;;;;;;25.17;8.70;;;6.70;99.90;;;;;;4935800;29;20047;-78
2022/01/16 11:40:28;;;;;;;18.50;7.90;;;6.70;99.90;;;;;;4940448;29;20050;-78
2022/01/16 11:43:31;;;;;;;21.48;8.07;;;6.70;99.90;;;;;;4930037;29;20052;-74
2022/01/16 11:46:06;;;;;;;25.73;8.10;;;6.80;99.90;;;;;;4950240;29;20039;-79
2022/01/16 11:48:51;;;;;;;25.13;9.50;;;6.80;99.90;;;;;;4931808;29;20050;-79
2022/01/16 11:51:35;;;;;;;24.52;10.45;;;6.80;99.90;;;;;;4941481;29;20031;-79
2022/01/16 11:54:21;;;;;;;20.88;9.10;;;6.80;99.90;;;;;;4940606;29;20044;-77
2022/01/16 11:56:49;;;;;;;24.35;8.98;;;6.80;99.90;;;;;;4934427;29;20563;-79
2022/01/16 11:59:21;;;;;;;21.48;8.68;;;6.80;99.90;;;;;;4934433;29;20415;-77
2022/01/16 12:01:55;;;;;;;22.83;7.47;;;6.80;99.90;;;;;;4934236;29;20048;-76
2022/01/16 12:04:29;;;;;;;16.38;7.65;;;6.90;99.90;;;;;;4918226;29;20134;-79
2022/01/16 12:07:21;;;;;;;21.07;8.60;;;6.90;99.90;;;;;;4934442;29;20051;-79
2022/01/16 12:09:50;;;;;;;19.80;7.90;;;6.90;99.90;;;;;;4933833;29;20051;-80
2022/01/16 12:12:16;;;;;;;16.90;8.15;;;6.90;99.90;;;;;;4933937;29;20055;-78
2022/01/16 12:15:02;;;;;;;17.55;7.75;;;6.90;99.90;;;;;;4934195;29;20052;-80
2022/01/16 12:17:33;;;;;;;26.75;7.95;;;7.00;99.90;;;;;;4933919;29;20054;-79
2022/01/16 12:20:23;;;;;;;23.30;8.38;;;7.00;99.90;;;;;;4934179;29;20378;-79
2022/01/16 12:22:58;;;;;;;19.75;8.75;;;6.90;99.90;;;;;;4933918;29;20114;-77
2022/01/16 12:25:43;;;;;;;21.67;9.02;;;7.00;99.90;;;;;;4933033;29;20095;-77
2022/01/16 12:28:08;;;;;;;24.10;8.73;;;7.00;99.90;;;;;;4933351;29;20040;-79
2022/01/16 12:30:52;;;;;;;24.73;9.95;;;7.00;99.90;;;;;;4942493;29;20058;-78
2022/01/16 12:33:38;;;;;;;24.77;10.00;;;7.00;99.90;;;;;;4934192;29;20040;-78
2022/01/16 12:36:29;;;;;;;26.38;10.27;;;7.10;99.90;;;;;;4935084;29;20131;-80
2022/01/16 12:39:07;;;;;;;25.55;10.73;;;7.00;99.90;;;;;;4938282;29;20064;-78
2022/01/16 12:41:45;;;;;;;25.15;13.43;;;7.10;99.90;;;;;;4950409;29;20051;-79
2022/01/16 12:44:16;;;;;;;23.45;12.45;;;7.10;99.90;;;;;;4921331;29;20075;-78
2022/01/16 12:46:52;;;;;;;31.40;12.38;;;7.10;99.90;;;;;;4936758;29;20048;-80
2022/01/16 12:49:26;;;;;;;19.35;8.13;;;7.10;99.90;;;;;;4937004;29;20050;-79
2022/01/16 12:51:54;;;;;;;25.10;9.35;;;7.10;99.90;;;;;;4936977;29;20044;-79
2022/01/16 12:54:25;;;;;;;23.02;10.25;;;7.10;99.90;;;;;;4936988;29;20388;-79
2022/01/16 12:56:57;;;;;;;26.67;12.50;;;7.20;99.90;;;;;;4936898;29;20036;-80
2022/01/16 12:59:25;;;;;;;21.45;7.45;;;7.20;99.90;;;;;;4937062;29;20031;-78
2022/01/16 13:01:58;;;;;;;29.30;10.98;;;7.20;99.90;;;;;;4936714;29;20127;-77
2022/01/16 13:04:32;;;;;;;22.83;9.70;;;7.20;99.90;;;;;;4937361;29;20111;-77
2022/01/16 13:07:09;;;;;;;26.13;10.07;;;7.20;99.90;;;;;;4936657;29;20058;-79
2022/01/16 13:09:36;;;;;;;20.05;8.13;;;7.20;99.90;;;;;;4936690;29;20396;-77
2022/01/16 13:12:03;;;;;;;19.83;8.38;;;7.20;99.90;;;;;;4936611;29;20092;-79
2022/01/16 13:14:35;;;;;;;20.95;8.50;;;7.20;99.90;;;;;;4938437;29;20059;-79
2022/01/16 13:17:05;;;;;;;17.20;7.85;;;7.20;99.90;;;;;;4937777;29;20043;-77
2022/01/16 13:19:41;;;;;;;19.98;9.05;;;7.20;99.90;;;;;;4936649;29;20044;-79
2022/01/16 13:22:11;;;;;;;17.88;9.38;;;7.20;99.90;;;;;;4936495;29;20054;-77
2022/01/16 13:24:39;;;;;;;25.20;7.68;;;7.20;99.90;;;;;;4937018;29;20098;-78
2022/01/16 13:27:12;;;;;;;21.90;7.43;;;7.10;99.90;;;;;;4936091;29;20515;-78
2022/01/16 13:29:41;;;;;;;19.20;7.55;;;7.20;99.90;;;;;;4936412;29;20046;-77
2022/01/16 13:32:09;;;;;;;19.27;8.27;;;7.20;99.90;;;;;;4936193;29;20039;-80
2022/01/16 13:34:40;;;;;;;18.83;7.68;;;7.10;99.90;;;;;;4936078;29;20043;-77
2022/01/16 13:37:11;;;;;;;24.27;7.97;;;7.10;99.90;;;;;;4936331;29;20051;-79
2022/01/16 13:39:36;;;;;;;20.73;7.28;;;7.10;99.90;;;;;;4936205;29;20040;-77
2022/01/16 13:42:12;;;;;;;27.00;9.55;;;7.20;99.90;;;;;;4920050;29;20511;-79
2022/01/16 13:44:38;;;;;;;24.35;7.47;;;7.20;99.90;;;;;;4935993;29;20048;-80
2022/01/16 13:47:04;;;;;;;24.00;8.13;;;7.10;99.90;;;;;;4935823;29;20111;-78
2022/01/16 13:49:29;;;;;;;22.25;8.40;;;7.10;99.90;;;;;;4935730;29;20046;-77
2022/01/16 13:51:57;;;;;;;18.63;7.63;;;7.20;99.90;;;;;;4935934;29;20098;-78
2022/01/16 13:54:29;;;;;;;18.65;7.90;;;7.20;99.90;;;;;;4920417;29;20371;-76
2022/01/16 13:56:57;;;;;;;24.50;8.02;;;7.30;99.90;;;;;;4936282;29;20040;-77
2022/01/16 13:59:23;;;;;;;17.83;6.70;;;7.30;99.90;;;;;;4936115;29;20044;-78
2022/01/16 14:01:52;;;;;;;20.27;7.45;;;7.30;99.90;;;;;;4936654;29;20048;-78
2022/01/16 14:04:18;;;;;;;18.42;6.20;;;7.30;99.90;;;;;;4935653;29;20043;-79
2022/01/16 14:06:55;;;;;;;18.77;6.90;;;7.30;99.90;;;;;;4935554;29;20036;-80
2022/01/16 14:09:24;;;;;;;21.38;6.88;;;7.30;99.90;;;;;;4935524;29;20504;-79
2022/01/16 14:11:52;;;;;;;18.65;7.75;;;7.40;99.90;;;;;;4935316;29;20079;-75
2022/01/16 14:14:20;;;;;;;15.75;7.13;;;7.30;99.90;;;;;;4935557;29;20035;-76
2022/01/16 14:22:14;;;;;;;19.13;8.18;;;7.30;99.90;;;;;;4935131;29;20063;-78
2022/01/16 14:24:58;;;;;;;17.52;7.90;;;7.30;99.90;;;;;;4935489;29;20039;-78
2022/01/16 14:27:27;;;;;;;19.50;9.20;;;7.30;99.90;;;;;;4935536;29;20050;-77
2022/01/16 14:29:56;;;;;;;26.13;9.68;;;7.20;99.90;;;;;;4936483;29;20039;-76
2022/01/16 14:32:23;;;;;;;17.70;8.30;;;7.20;99.90;;;;;;4935141;29;20123;-76
2022/01/16 14:34:50;;;;;;;19.58;8.35;;;7.20;99.90;;;;;;4935229;29;20054;-79
2022/01/16 14:37:17;;;;;;;25.48;9.40;;;7.20;99.90;;;;;;4935114;29;20050;-76
2022/01/16 14:39:44;;;;;;;20.50;8.10;;;7.20;99.90;;;;;;4935190;29;20580;-77
2022/01/16 14:42:10;;;;;;;23.33;10.55;;;7.20;99.90;;;;;;4934977;29;20059;-76
2022/01/16 14:44:40;;;;;;;17.20;8.15;;;7.20;99.90;;;;;;4935003;29;20043;-79
2022/01/16 14:47:09;;;;;;;21.20;8.05;;;7.20;99.90;;;;;;4965443;28;20479;-79
2022/01/16 14:49:35;;;;;;;19.90;9.02;;;7.30;99.90;;;;;;4973591;28;20050;-80
2022/01/16 14:52:01;;;;;;;21.15;10.10;;;7.30;99.90;;;;;;4973314;28;20082;-80
2022/01/16 14:54:27;;;;;;;25.30;13.32;;;7.20;99.90;;;;;;4973246;28;20035;-78
2022/01/16 14:56:53;;;;;;;33.45;10.68;;;7.30;99.90;;;;;;4957257;28;20583;-76
2022/01/16 14:59:18;;;;;;;23.13;9.82;;;7.30;99.90;;;;;;4973930;28;20046;-77
2022/01/16 15:01:45;;;;;;;21.70;10.75;;;7.30;99.90;;;;;;4973286;28;20479;-79
2022/01/16 15:04:12;;;;;;;23.83;10.55;;;7.30;99.90;;;;;;4973330;28;20455;-79
2022/01/16 15:06:39;;;;;;;22.55;11.32;;;7.30;99.90;;;;;;4973106;28;20046;-78
2022/01/16 15:09:06;;;;;;;23.77;10.10;;;7.30;99.90;;;;;;4956776;28;20050;-78
2022/01/16 15:11:33;;;;;;;20.95;10.20;;;7.30;99.90;;;;;;4974474;28;20177;-77
2022/01/16 15:13:58;;;;;;;21.30;10.25;;;7.30;99.90;;;;;;4973022;28;20085;-78
2022/01/16 15:16:29;;;;;;;17.92;9.95;;;7.30;99.90;;;;;;4974559;28;20046;-77
2022/01/16 15:19:16;;;;;;;32.60;14.82;;;7.30;99.90;;;;;;4973160;28;20046;-77
2022/01/16 15:21:50;;;;;;;25.17;13.07;;;7.30;99.90;;;;;;4973172;28;20065;-78
2022/01/16 15:24:16;;;;;;;26.58;11.40;;;7.20;99.90;;;;;;4967997;28;20085;-77
2022/01/16 15:26:42;;;;;;;22.17;10.35;;;7.20;99.90;;;;;;4949283;28;20094;-77
2022/01/16 15:29:11;;;;;;;29.00;10.98;;;7.20;99.90;;;;;;4944884;28;20116;-79
2022/01/16 15:31:37;;;;;;;21.20;10.82;;;7.20;99.90;;;;;;4945915;29;20043;-79
2022/01/16 15:34:02;;;;;;;24.05;11.00;;;7.10;99.90;;;;;;4936560;29;20066;-78
2022/01/16 15:36:30;;;;;;;22.15;10.95;;;7.20;99.90;;;;;;4933998;29;20040;-77
2022/01/16 15:38:55;;;;;;;25.88;10.95;;;7.20;99.90;;;;;;4934269;29;20130;-76
2022/01/16 15:41:21;;;;;;;26.52;11.75;;;7.10;99.90;;;;;;4934039;29;20122;-78
2022/01/16 15:43:47;;;;;;;25.50;11.18;;;7.10;99.90;;;;;;4934214;29;20404;-79
2022/01/16 15:46:14;;;;;;;25.02;12.73;;;7.10;99.90;;;;;;4935682;29;20135;-79
2022/01/16 15:48:40;;;;;;;34.10;12.57;;;7.00;99.90;;;;;;4957314;29;20052;-75
2022/01/16 15:51:06;;;;;;;28.35;12.27;;;7.00;99.90;;;;;;4940603;29;20032;-76
2022/01/16 15:53:32;;;;;;;29.35;12.38;;;7.00;99.90;;;;;;4935625;29;20036;-78
2022/01/16 15:55:57;;;;;;;25.67;13.15;;;7.00;99.90;;;;;;4935382;29;20059;-79
2022/01/16 15:58:23;;;;;;;25.35;12.35;;;7.00;99.90;;;;;;4934380;29;20047;-77
2022/01/16 16:00:49;;;;;;;32.65;13.25;;;7.00;99.90;;;;;;4935077;29;20044;-79
2022/01/16 16:03:16;;;;;;;36.08;18.80;;;6.90;99.90;;;;;;4934645;29;20055;-78
2022/01/16 16:05:42;;;;;;;29.10;13.07;;;6.90;99.90;;;;;;4933769;29;20130;-79
2022/01/16 16:08:09;;;;;;;24.65;12.02;;;6.90;99.90;;;;;;4933751;29;20532;-78
2022/01/16 16:10:36;;;;;;;33.63;12.35;;;6.80;99.90;;;;;;4935589;29;20079;-79
2022/01/16 16:13:02;;;;;;;36.15;17.73;;;6.80;99.90;;;;;;4937731;29;20123;-78
2022/01/16 16:15:28;;;;;;;24.42;13.02;;;6.70;99.90;;;;;;4937523;29;20122;-78
2022/01/16 16:17:54;;;;;;;29.98;14.98;;;6.70;99.90;;;;;;4938256;29;20128;-79
2022/01/16 16:20:21;;;;;;;27.17;11.80;;;6.70;99.90;;;;;;4932707;29;20059;-77
2022/01/16 16:22:58;;;;;;;28.58;11.55;;;6.60;99.90;;;;;;4937432;29;20079;-78
2022/01/16 16:25:25;;;;;;;28.38;12.35;;;6.60;99.90;;;;;;4937664;29;20503;-78
2022/01/16 16:27:53;;;;;;;20.45;11.68;;;6.60;99.90;;;;;;4939006;29;20118;-79
2022/01/16 16:30:19;;;;;;;30.15;12.43;;;6.50;99.90;;;;;;4937071;29;20057;-80
2022/01/16 16:32:45;;;;;;;29.08;13.23;;;6.50;99.90;;;;;;4937585;29;20039;-79
2022/01/16 16:35:11;;;;;;;33.30;12.20;;;6.60;99.90;;;;;;4937154;29;20055;-80
2022/01/16 16:37:38;;;;;;;33.38;13.90;;;6.60;99.90;;;;;;4938816;29;20040;-80
2022/01/16 16:40:05;;;;;;;24.63;11.73;;;6.60;99.90;;;;;;4937293;29;20047;-80
2022/01/16 16:42:31;;;;;;;32.17;13.98;;;6.60;99.90;;;;;;4936979;29;20051;-80
2022/01/16 16:44:58;;;;;;;27.20;11.40;;;6.60;99.90;;;;;;4937197;29;20054;-80
2022/01/16 16:47:23;;;;;;;29.42;12.25;;;6.60;99.90;;;;;;4921193;29;20508;-77
2022/01/16 16:49:49;;;;;;;26.25;12.00;;;6.60;99.90;;;;;;4936917;29;20040;-80
2022/01/16 16:52:15;;;;;;;31.88;13.43;;;6.60;99.90;;;;;;4936944;29;20380;-77
2022/01/16 16:54:43;;;;;;;23.13;10.88;;;6.60;99.90;;;;;;4936648;29;20055;-80
2022/01/16 16:57:10;;;;;;;25.00;11.38;;;6.70;99.90;;;;;;4936644;29;20039;-79
2022/01/16 16:59:37;;;;;;;28.48;11.85;;;6.60;99.90;;;;;;4936230;29;20071;-78
2022/01/16 17:02:05;;;;;;;25.67;11.45;;;6.60;99.90;;;;;;4937957;29;20035;-81
2022/01/16 17:04:31;;;;;;;29.83;12.98;;;6.70;99.90;;;;;;4936519;29;20131;-79
2022/01/16 17:06:56;;;;;;;29.25;11.35;;;6.70;99.90;;;;;;4936565;29;20147;-77
2022/01/16 17:09:22;;;;;;;29.48;11.57;;;6.70;99.90;;;;;;4936450;29;20036;-77
2022/01/16 17:11:47;;;;;;;33.20;13.10;;;6.60;99.90;;;;;;4936578;29;20131;-80
2022/01/16 17:14:13;;;;;;;26.38;11.45;;;6.60;99.90;;;;;;4936548;29;20480;-77
2022/01/16 17:16:46;;;;;;;26.13;11.10;;;6.70;99.90;;;;;;4936118;29;20035;-76
2022/01/16 17:19:19;;;;;;;33.72;12.48;;;6.70;99.90;;;;;;4939123;29;20046;-75
2022/01/16 17:21:45;;;;;;;29.77;11.77;;;6.60;99.90;;;;;;4945213;28;20062;-79
2022/01/16 17:24:10;;;;;;;29.73;11.43;;;6.60;99.90;;;;;;4936221;29;20473;-79
2022/01/16 17:26:36;;;;;;;31.38;12.48;;;6.60;99.90;;;;;;4936334;29;20372;-77
2022/01/16 17:29:03;;;;;;;28.75;11.85;;;6.60;99.90;;;;;;4937141;29;20048;-80
2022/01/16 17:31:28;;;;;;;25.65;12.82;;;6.70;99.90;;;;;;4920291;29;20040;-76
2022/01/16 17:33:54;;;;;;;28.55;11.85;;;6.70;99.90;;;;;;4936363;29;20051;-79
2022/01/16 17:36:20;;;;;;;47.83;17.17;;;6.70;99.90;;;;;;4935994;29;20492;-79
2022/01/16 17:38:45;;;;;;;28.58;13.13;;;6.60;99.90;;;;;;4919878;29;20048;-79
2022/01/16 17:41:12;;;;;;;33.25;14.32;;;6.60;99.90;;;;;;4946949;29;20039;-81
2022/01/16 17:43:38;;;;;;;34.50;14.25;;;6.60;99.90;;;;;;4954985;29;20055;-82
2022/01/16 17:46:04;;;;;;;38.45;14.23;;;6.60;99.90;;;;;;4938113;29;20036;-79
2022/01/16 17:48:31;;;;;;;31.85;13.40;;;6.60;99.90;;;;;;4935731;29;20099;-79
2022/01/16 17:50:56;;;;;;;32.45;14.02;;;6.70;99.90;;;;;;4935635;29;20052;-82
2022/01/16 17:53:22;;;;;;;47.42;19.10;;;6.60;99.90;;;;;;4935751;29;20399;-78